createdAt,value
2018-05-25T00:02:02.616Z,16.30
2018-05-25T00:04:30.226Z,16.20
2018-05-25T00:06:57.815Z,16.30
2018-05-25T00:09:25.456Z,16.30
2018-05-25T00:11:52.984Z,16.30
2018-05-25T00:14:22.153Z,16.30
2018-05-25T00:16:49.752Z,16.20
2018-05-25T00:19:18.092Z,16.30
2018-05-25T00:21:45.704Z,16.20
2018-05-25T00:24:13.296Z,16.30
2018-05-25T00:26:40.947Z,16.20
2018-05-25T00:29:08.580Z,16.30
2018-05-25T00:31:36.938Z,16.20
2018-05-25T00:34:04.543Z,16.20
2018-05-25T00:36:32.237Z,16.20
2018-05-25T00:38:59.802Z,16.20
2018-05-25T00:41:27.388Z,16.20
2018-05-25T00:43:55.036Z,16.20
2018-05-25T00:46:23.372Z,16.10
2018-05-25T00:48:50.972Z,16.10
2018-05-25T00:51:18.545Z,16.10
2018-05-25T00:53:46.115Z,16.10
2018-05-25T00:56:13.722Z,16.10
2018-05-25T00:58:41.311Z,16.10
2018-05-25T01:01:08.903Z,16.10
2018-05-25T01:03:36.471Z,16.10
2018-05-25T01:06:04.824Z,16.10
2018-05-25T01:08:32.487Z,16.10
2018-05-25T01:11:00.077Z,16.10
2018-05-25T01:13:28.453Z,16.10
2018-05-25T01:15:56.819Z,16.10
2018-05-25T01:18:24.731Z,16.00
2018-05-25T01:20:52.380Z,16.10
2018-05-25T01:23:20.771Z,16.10
2018-05-25T01:25:48.402Z,16.00
2018-05-25T01:28:15.995Z,16.00
2018-05-25T01:30:43.563Z,16.10
2018-05-25T01:33:11.164Z,16.10
2018-05-25T01:35:38.767Z,16.10
2018-05-25T01:38:06.344Z,16.10
2018-05-25T01:40:33.960Z,16.10
2018-05-25T01:43:01.556Z,16.10
2018-05-25T01:45:30.006Z,16.10
2018-05-25T01:47:58.384Z,16.00
2018-05-25T01:50:25.964Z,16.00
2018-05-25T01:52:54.311Z,16.00
2018-05-25T01:55:21.885Z,16.00
2018-05-25T01:57:49.484Z,16.10
2018-05-25T02:00:17.059Z,16.00
2018-05-25T02:02:44.655Z,16.00
2018-05-25T02:05:12.260Z,16.00
2018-05-25T02:07:40.604Z,15.90
2018-05-25T02:10:08.244Z,15.90
2018-05-25T02:12:35.833Z,15.90
2018-05-25T02:15:03.393Z,15.90
2018-05-25T02:17:31.641Z,15.90
2018-05-25T02:19:59.231Z,15.90
2018-05-25T02:22:26.804Z,15.80
2018-05-25T02:24:55.214Z,15.80
2018-05-25T02:27:22.783Z,15.80
2018-05-25T02:29:50.372Z,15.80
2018-05-25T02:32:17.948Z,15.80
2018-05-25T02:34:45.547Z,15.80
2018-05-25T02:37:13.128Z,15.80
2018-05-25T02:39:40.768Z,15.80
2018-05-25T02:42:09.104Z,15.80
2018-05-25T02:44:36.709Z,15.80
2018-05-25T02:47:05.063Z,16.00
2018-05-25T02:49:33.136Z,15.90
2018-05-25T02:52:00.749Z,15.90
2018-05-25T02:54:28.333Z,15.90
2018-05-25T02:56:55.925Z,15.90
2018-05-25T02:59:23.534Z,15.90
2018-05-25T03:01:51.121Z,15.90
2018-05-25T03:04:18.693Z,15.90
2018-05-25T03:06:46.284Z,15.90
2018-05-25T03:09:14.653Z,15.90
2018-05-25T03:11:43.026Z,15.90
2018-05-25T03:14:10.608Z,15.90
2018-05-25T03:16:38.240Z,15.90
2018-05-25T03:19:05.796Z,15.90
2018-05-25T03:21:33.395Z,15.90
2018-05-25T03:24:01.742Z,15.90
2018-05-25T03:26:29.337Z,15.90
2018-05-25T03:28:56.924Z,15.90
2018-05-25T03:31:24.520Z,16.00
2018-05-25T03:33:52.091Z,16.00
2018-05-25T03:36:20.461Z,16.10
2018-05-25T03:38:48.826Z,16.10
2018-05-25T03:41:16.425Z,16.10
2018-05-25T03:43:44.764Z,16.20
2018-05-25T03:46:12.340Z,16.20
2018-05-25T03:48:39.904Z,16.20
2018-05-25T03:51:07.567Z,16.20
2018-05-25T03:53:35.143Z,16.20
2018-05-25T03:56:03.488Z,16.20
2018-05-25T03:58:42.867Z,16.20
2018-05-25T04:01:22.879Z,17.60
2018-05-25T04:03:50.490Z,16.40
2018-05-25T04:06:18.884Z,16.50
2018-05-25T04:08:47.208Z,16.60
2018-05-25T04:11:14.817Z,16.60
2018-05-25T04:13:42.395Z,16.60
2018-05-25T04:16:09.981Z,16.70
2018-05-25T04:18:37.558Z,16.80
2018-05-25T04:21:05.173Z,16.80
2018-05-25T04:23:32.792Z,16.90
2018-05-25T04:26:00.376Z,16.90
2018-05-25T04:28:28.773Z,17.00
2018-05-25T04:30:56.333Z,17.00
2018-05-25T04:33:23.901Z,17.00
2018-05-25T04:35:51.506Z,17.10
2018-05-25T04:38:19.068Z,17.10
2018-05-25T04:40:46.657Z,17.00
2018-05-25T04:43:15.040Z,17.00
2018-05-25T04:45:42.584Z,17.00
2018-05-25T04:48:10.154Z,16.90
2018-05-25T04:50:38.544Z,16.90
2018-05-25T04:53:06.170Z,16.80
2018-05-25T04:55:35.374Z,16.80
2018-05-25T04:58:02.973Z,16.80
2018-05-25T05:00:31.315Z,16.70
2018-05-25T05:02:58.931Z,16.70
2018-05-25T05:05:26.616Z,16.70
2018-05-25T05:07:54.204Z,16.70
2018-05-25T05:10:21.776Z,16.70
2018-05-25T05:12:49.435Z,16.70
2018-05-25T05:15:17.024Z,16.70
2018-05-25T05:17:44.645Z,16.70
2018-05-25T05:20:12.220Z,16.70
2018-05-25T05:22:39.888Z,16.70
2018-05-25T05:25:08.229Z,16.80
2018-05-25T05:27:35.819Z,16.80
2018-05-25T05:30:03.375Z,17.00
2018-05-25T05:32:30.951Z,17.20
2018-05-25T05:34:59.308Z,18.00
2018-05-25T05:37:26.915Z,18.00
2018-05-25T05:39:55.252Z,18.90
2018-05-25T05:42:22.874Z,18.80
2018-05-25T05:44:50.553Z,19.00
2018-05-25T05:47:18.118Z,19.00
2018-05-25T05:49:45.719Z,19.20
2018-05-25T05:52:14.082Z,19.40
2018-05-25T05:54:41.804Z,19.30
2018-05-25T05:57:09.379Z,19.50
2018-05-25T05:59:36.998Z,19.40
2018-05-25T06:02:04.586Z,19.30
2018-05-25T06:04:32.168Z,19.40
2018-05-25T06:07:00.519Z,19.60
2018-05-25T06:09:28.109Z,19.60
2018-05-25T06:11:55.680Z,20.50
2018-05-25T06:14:23.283Z,21.30
2018-05-25T06:16:51.640Z,24.80
2018-05-25T06:19:19.249Z,24.70
2018-05-25T06:21:46.826Z,26.20
2018-05-25T06:24:14.423Z,27.80
2018-05-25T06:26:41.986Z,28.70
2018-05-25T06:29:09.598Z,29.40
2018-05-25T06:31:37.209Z,30.60
2018-05-25T06:34:04.788Z,31.00
2018-05-25T06:36:33.248Z,31.30
2018-05-25T06:39:00.815Z,31.20
2018-05-25T06:41:29.162Z,31.30
2018-05-25T06:43:56.747Z,31.30
2018-05-25T06:46:24.339Z,32.10
2018-05-25T06:48:51.922Z,32.00
2018-05-25T06:51:19.488Z,32.60
2018-05-25T06:53:47.104Z,33.50
2018-05-25T06:56:15.468Z,34.20
2018-05-25T06:58:43.039Z,34.10
2018-05-25T07:01:10.650Z,34.80
2018-05-25T07:03:38.211Z,35.80
2018-05-25T07:06:05.792Z,36.50
2018-05-25T07:08:33.397Z,37.40
2018-05-25T07:11:01.731Z,38.00
2018-05-25T07:13:29.348Z,37.90
2018-05-25T07:15:57.690Z,38.00
2018-05-25T07:18:25.281Z,38.00
2018-05-25T07:20:53.680Z,38.50
2018-05-25T07:23:21.276Z,38.40
2018-05-25T07:25:48.860Z,38.40
2018-05-25T07:28:16.472Z,38.50
2018-05-25T07:30:44.029Z,38.50
2018-05-25T07:33:11.646Z,38.20
2018-05-25T07:35:39.203Z,38.60
2018-05-25T07:38:06.775Z,38.80
2018-05-25T07:40:34.390Z,39.10
2018-05-25T07:43:02.004Z,37.70
2018-05-25T07:45:30.372Z,37.60
2018-05-25T07:47:57.976Z,37.50
2018-05-25T07:50:25.576Z,38.50
2018-05-25T07:52:53.169Z,38.80
2018-05-25T07:55:20.774Z,38.30
2018-05-25T07:57:48.418Z,37.80
2018-05-25T08:00:16.837Z,38.40
2018-05-25T08:02:44.391Z,38.40
2018-05-25T08:05:12.003Z,38.80
2018-05-25T08:07:40.504Z,39.30
2018-05-25T08:10:08.099Z,39.20
2018-05-25T08:12:35.661Z,39.50
2018-05-25T08:15:03.240Z,39.30
2018-05-25T08:17:30.844Z,39.30
2018-05-25T08:19:58.443Z,39.40
2018-05-25T08:22:26.060Z,38.50
2018-05-25T08:24:54.449Z,34.30
2018-05-25T08:27:22.780Z,33.70
2018-05-25T08:29:50.388Z,33.60
2018-05-25T08:32:17.971Z,33.00
2018-05-25T08:34:45.579Z,32.20
2018-05-25T08:37:13.163Z,31.40
2018-05-25T08:39:41.496Z,30.10
2018-05-25T08:42:09.119Z,30.00
2018-05-25T08:44:36.673Z,29.20
2018-05-25T08:47:04.290Z,28.90
2018-05-25T08:49:31.915Z,29.00
2018-05-25T08:51:59.454Z,29.20
2018-05-25T08:54:27.796Z,32.70
2018-05-25T08:56:55.391Z,32.60
2018-05-25T08:59:23.776Z,32.30
2018-05-25T09:01:52.188Z,32.40
2018-05-25T09:04:19.770Z,32.40
2018-05-25T09:06:47.434Z,32.30
2018-05-25T09:09:14.987Z,31.30
2018-05-25T09:11:42.614Z,30.50
2018-05-25T09:14:10.207Z,30.50
2018-05-25T09:16:37.796Z,30.40
2018-05-25T09:19:05.365Z,30.30
2018-05-25T09:21:32.941Z,30.00
2018-05-25T09:24:01.314Z,29.80
2018-05-25T09:26:29.695Z,29.40
2018-05-25T09:28:57.285Z,29.30
2018-05-25T09:31:24.909Z,29.00
2018-05-25T09:33:52.527Z,29.10
2018-05-25T09:36:20.156Z,28.90
2018-05-25T09:38:48.495Z,28.60
2018-05-25T09:41:16.069Z,28.60
2018-05-25T09:43:43.656Z,29.00
2018-05-25T09:46:11.252Z,29.20
2018-05-25T09:48:39.009Z,28.70
2018-05-25T09:51:06.603Z,28.60
2018-05-25T09:53:34.231Z,28.50
2018-05-25T09:56:01.923Z,28.50
2018-05-25T09:58:29.516Z,29.40
2018-05-25T10:00:57.880Z,28.00
2018-05-25T10:03:25.464Z,27.90
2018-05-25T10:05:53.868Z,28.00
2018-05-25T10:08:21.468Z,28.00
2018-05-25T10:10:49.080Z,27.60
2018-05-25T10:13:16.675Z,27.30
2018-05-25T10:15:44.304Z,27.00
2018-05-25T10:18:12.623Z,26.70
2018-05-25T10:20:40.221Z,26.70
2018-05-25T10:23:07.846Z,26.70
2018-05-25T10:25:35.452Z,26.60
2018-05-25T10:28:03.797Z,26.70
2018-05-25T10:30:31.404Z,26.70
2018-05-25T10:32:59.747Z,26.90
2018-05-25T10:35:27.328Z,26.80
2018-05-25T10:37:55.740Z,26.60
2018-05-25T10:40:23.359Z,26.60
2018-05-25T10:42:50.933Z,26.50
2018-05-25T10:45:19.356Z,26.30
2018-05-25T10:47:47.060Z,26.30
2018-05-25T10:50:14.683Z,26.40
2018-05-25T10:52:42.275Z,26.20
2018-05-25T10:55:09.856Z,26.20
2018-05-25T10:57:37.456Z,26.00
2018-05-25T11:00:05.056Z,25.90
2018-05-25T11:02:32.652Z,25.80
2018-05-25T11:05:01.037Z,25.60
2018-05-25T11:07:29.407Z,25.70
2018-05-25T11:09:57.866Z,25.50
2018-05-25T11:12:25.380Z,25.50
2018-05-25T11:14:53.051Z,25.70
2018-05-25T11:17:20.652Z,25.80
2018-05-25T11:19:48.325Z,26.00
2018-05-25T11:22:15.925Z,26.00
2018-05-25T11:24:43.541Z,26.30
2018-05-25T11:27:11.206Z,26.60
2018-05-25T11:29:38.896Z,26.90
2018-05-25T11:32:07.224Z,27.50
2018-05-25T11:34:34.891Z,27.40
2018-05-25T11:37:02.491Z,27.70
2018-05-25T11:39:30.877Z,28.00
2018-05-25T11:41:59.229Z,27.70
2018-05-25T11:44:26.857Z,27.70
2018-05-25T11:46:54.584Z,28.10
2018-05-25T11:49:22.933Z,28.80
2018-05-25T11:51:50.526Z,28.80
2018-05-25T11:54:18.174Z,29.10
2018-05-25T11:56:45.760Z,29.60
2018-05-25T11:59:13.461Z,29.60
2018-05-25T12:01:41.090Z,29.20
2018-05-25T12:04:09.465Z,28.70
2018-05-25T12:06:37.873Z,28.50
2018-05-25T12:09:06.195Z,28.50
2018-05-25T12:11:33.801Z,28.50
2018-05-25T12:14:01.396Z,28.50
2018-05-25T12:16:29.021Z,28.20
2018-05-25T12:18:56.664Z,28.10
2018-05-25T12:21:25.031Z,28.60
2018-05-25T12:23:52.616Z,28.60
2018-05-25T12:26:20.263Z,28.60
2018-05-25T12:28:48.629Z,29.00
2018-05-25T12:31:16.218Z,29.00
2018-05-25T12:33:43.808Z,29.40
2018-05-25T12:36:11.441Z,29.40
2018-05-25T12:38:39.073Z,29.30
2018-05-25T12:41:06.699Z,29.20
2018-05-25T12:43:34.315Z,29.30
2018-05-25T12:46:02.698Z,29.50
2018-05-25T12:48:31.080Z,29.50
2018-05-25T12:50:59.488Z,29.90
2018-05-25T12:53:27.203Z,29.90
2018-05-25T12:55:54.806Z,30.30
2018-05-25T12:58:22.425Z,30.20
2018-05-25T13:00:50.031Z,29.70
2018-05-25T13:03:17.605Z,29.40
2018-05-25T13:05:45.252Z,28.70
2018-05-25T13:08:12.848Z,28.20
2018-05-25T13:10:40.451Z,28.20
2018-05-25T13:13:08.826Z,28.60
2018-05-25T13:15:37.187Z,28.60
2018-05-25T13:18:04.773Z,28.60
2018-05-25T13:20:33.129Z,27.90
2018-05-25T13:23:00.772Z,27.90
2018-05-25T13:25:28.415Z,27.60
2018-05-25T13:27:56.027Z,27.40
2018-05-25T13:30:24.382Z,26.60
2018-05-25T13:32:52.013Z,26.60
2018-05-25T13:35:19.581Z,26.40
2018-05-25T13:37:47.212Z,26.40
2018-05-25T13:40:15.588Z,26.40
2018-05-25T13:42:43.974Z,26.50
2018-05-25T13:45:11.536Z,24.40
2018-05-25T13:47:39.140Z,26.30
2018-05-25T13:50:06.728Z,26.30
2018-05-25T13:52:34.317Z,26.30
2018-05-25T13:55:01.959Z,26.30
2018-05-25T13:57:30.321Z,26.40
2018-05-25T13:59:57.959Z,26.40
2018-05-25T14:02:25.540Z,26.30
2018-05-25T14:04:53.151Z,26.20
2018-05-25T14:07:20.763Z,25.90
2018-05-25T14:09:48.393Z,26.00
2018-05-25T14:12:15.986Z,26.00
2018-05-25T14:14:43.577Z,26.00
2018-05-25T14:17:11.931Z,26.20
2018-05-25T14:19:39.537Z,26.10
2018-05-25T14:22:07.148Z,26.10
2018-05-25T14:24:34.742Z,26.00
2018-05-25T14:27:02.418Z,26.00
2018-05-25T14:29:30.792Z,26.20
2018-05-25T14:31:59.167Z,26.30
2018-05-25T14:34:27.532Z,26.40
2018-05-25T14:36:55.107Z,26.40
2018-05-25T14:39:23.494Z,26.60
2018-05-25T14:41:51.864Z,26.70
2018-05-25T14:44:20.229Z,26.70
2018-05-25T14:46:53.194Z,26.70
2018-05-25T14:49:20.808Z,26.80
2018-05-25T14:51:49.214Z,26.70
2018-05-25T14:54:16.793Z,26.80
2018-05-25T14:56:44.427Z,26.90
2018-05-25T14:59:11.992Z,27.10
2018-05-25T15:01:39.611Z,27.10
2018-05-25T15:04:07.221Z,26.90
2018-05-25T15:06:34.828Z,26.60
2018-05-25T15:09:02.440Z,26.80
2018-05-25T15:11:30.052Z,27.00
2018-05-25T15:13:57.647Z,26.90
2018-05-25T15:16:26.018Z,27.00
2018-05-25T15:18:54.362Z,26.90
2018-05-25T15:21:21.924Z,26.90
2018-05-25T15:23:49.519Z,26.80
2018-05-25T15:26:17.880Z,26.60
2018-05-25T15:28:45.501Z,26.50
2018-05-25T15:31:13.106Z,26.40
2018-05-25T15:33:40.685Z,26.30
2018-05-25T15:36:09.052Z,26.00
2018-05-25T15:38:36.668Z,26.00
2018-05-25T15:41:04.268Z,25.90
2018-05-25T15:43:31.842Z,25.80
2018-05-25T15:46:00.205Z,25.60
2018-05-25T15:48:27.815Z,25.60
2018-05-25T15:50:55.404Z,25.50
2018-05-25T15:53:23.027Z,25.50
2018-05-25T15:55:50.627Z,25.40
2018-05-25T15:58:18.269Z,25.40
2018-05-25T16:00:45.868Z,25.30
2018-05-25T16:03:14.336Z,25.20
2018-05-25T16:05:42.074Z,25.20
2018-05-25T16:08:09.759Z,25.10
2018-05-25T16:10:37.412Z,25.00
2018-05-25T16:13:05.020Z,24.90
2018-05-25T16:15:33.360Z,24.80
2018-05-25T16:18:02.954Z,24.70
2018-05-25T16:20:35.236Z,24.70
2018-05-25T16:23:04.749Z,24.70
2018-05-25T16:25:38.189Z,24.70
2018-05-25T16:28:06.635Z,24.80
2018-05-25T16:30:36.271Z,24.90
2018-05-25T16:33:04.062Z,24.90
2018-05-25T16:35:31.663Z,25.10
2018-05-25T16:37:59.278Z,25.10
2018-05-25T16:40:27.631Z,25.30
2018-05-25T16:42:55.257Z,25.30
2018-05-25T16:45:22.825Z,25.20
2018-05-25T16:47:50.439Z,25.20
2018-05-25T16:50:18.829Z,25.00
2018-05-25T16:52:46.385Z,25.00
2018-05-25T16:55:14.743Z,24.80
2018-05-25T16:57:42.315Z,24.80
2018-05-25T17:00:10.688Z,24.50
2018-05-25T17:02:39.049Z,24.30
2018-05-25T17:05:06.814Z,24.30
2018-05-25T17:07:34.362Z,24.20
2018-05-25T17:10:02.040Z,24.20
2018-05-25T17:12:29.601Z,24.00
2018-05-25T17:14:57.207Z,23.90
2018-05-25T17:17:24.804Z,23.90
2018-05-25T17:19:52.388Z,23.80
2018-05-25T17:22:19.972Z,23.70
2018-05-25T17:24:48.314Z,23.50
2018-05-25T17:27:16.705Z,23.50
2018-05-25T17:29:44.305Z,23.40
2018-05-25T17:32:11.885Z,23.40
2018-05-25T17:34:39.524Z,23.40
2018-05-25T17:37:07.160Z,23.40
2018-05-25T17:39:34.737Z,23.40
2018-05-25T17:42:03.149Z,23.40
2018-05-25T17:44:31.471Z,23.40
2018-05-25T17:46:59.091Z,23.40
2018-05-25T17:49:26.700Z,23.50
2018-05-25T17:51:54.288Z,23.50
2018-05-25T17:54:22.690Z,23.60
2018-05-25T17:56:49.884Z,23.60
2018-05-25T17:59:17.463Z,23.60
2018-05-25T18:01:45.036Z,23.60
2018-05-25T18:04:13.402Z,23.50
2018-05-25T18:06:41.022Z,23.50
2018-05-25T18:09:09.485Z,23.50
2018-05-25T18:11:37.117Z,23.50
2018-05-25T18:14:04.677Z,23.50
2018-05-25T18:16:33.058Z,23.40
2018-05-25T18:19:01.413Z,23.40
2018-05-25T18:21:29.019Z,23.30
2018-05-25T18:23:56.626Z,23.30
2018-05-25T18:26:25.106Z,23.20
2018-05-25T18:28:52.728Z,23.20
2018-05-25T18:31:20.295Z,23.10
2018-05-25T18:33:48.051Z,23.10
2018-05-25T18:36:16.424Z,23.00
2018-05-25T18:38:44.791Z,22.90
2018-05-25T18:41:13.222Z,22.80
2018-05-25T18:43:40.837Z,22.80
2018-05-25T18:46:10.279Z,22.70
2018-05-25T18:48:37.905Z,22.70
2018-05-25T18:51:06.329Z,22.60
2018-05-25T18:53:35.939Z,22.60
2018-05-25T18:56:04.343Z,22.40
2018-05-25T18:58:31.952Z,22.40
2018-05-25T19:00:59.535Z,22.40
2018-05-25T19:03:27.206Z,22.30
2018-05-25T19:05:54.856Z,22.20
2018-05-25T19:08:22.481Z,22.10
2018-05-25T19:10:50.884Z,21.90
2018-05-25T19:13:18.505Z,21.90
2018-05-25T19:15:46.123Z,21.80
2018-05-25T19:18:13.767Z,21.80
2018-05-25T19:20:41.462Z,21.80
2018-05-25T19:25:52.817Z,21.60
2018-05-25T19:28:46.150Z,21.50
2018-05-25T19:31:13.962Z,21.50
2018-05-25T19:33:41.656Z,21.40
2018-05-25T19:36:10.094Z,21.30
2018-05-25T19:38:38.513Z,21.20
2018-05-25T19:41:06.832Z,21.10
2018-05-25T19:43:34.472Z,21.10
2018-05-25T19:46:02.080Z,21.10
2018-05-25T19:48:30.417Z,20.90
2018-05-25T19:50:58.033Z,20.90
2018-05-25T19:53:26.400Z,20.90
2018-05-25T19:55:54.802Z,20.80
2018-05-25T19:58:22.387Z,20.80
2018-05-25T20:00:50.035Z,20.80
2018-05-25T20:03:17.644Z,20.80
2018-05-25T20:05:45.326Z,20.80
2018-05-25T20:08:13.758Z,20.70
2018-05-25T20:10:41.426Z,20.70
2018-05-25T20:13:09.076Z,20.60
2018-05-25T20:15:36.693Z,20.60
2018-05-25T20:18:05.057Z,20.40
2018-05-25T20:20:33.434Z,20.40
2018-05-25T20:23:01.035Z,20.40
2018-05-25T20:25:28.651Z,20.30
2018-05-25T20:27:56.261Z,20.30
2018-05-25T20:30:23.853Z,20.20
2018-05-25T20:32:51.465Z,20.20
2018-05-25T20:35:19.846Z,20.20
2018-05-25T20:37:48.200Z,20.10
2018-05-25T20:40:15.830Z,20.10
2018-05-25T20:42:44.220Z,20.00
2018-05-25T20:45:11.945Z,20.00
2018-05-25T20:47:47.817Z,20.00
2018-05-25T20:50:15.417Z,19.90
2018-05-25T20:52:43.068Z,19.90
2018-05-25T20:55:10.701Z,19.80
2018-05-25T20:57:38.323Z,19.70
2018-05-25T21:00:06.671Z,19.60
2018-05-25T21:02:34.264Z,19.60
2018-05-25T21:05:02.687Z,19.50
2018-05-25T21:07:30.422Z,19.40
2018-05-25T21:09:58.808Z,19.40
2018-05-25T21:12:27.188Z,19.40
2018-05-25T21:14:55.540Z,19.30
2018-05-25T21:17:23.340Z,19.30
2018-05-25T21:19:50.947Z,17.70
2018-05-25T21:22:18.642Z,19.40
2018-05-25T21:24:46.996Z,19.40
2018-05-25T21:27:14.623Z,19.30
2018-05-25T21:29:42.325Z,19.40
2018-05-25T21:32:09.923Z,19.40
2018-05-25T21:34:38.288Z,19.40
2018-05-25T21:37:06.653Z,19.40
2018-05-25T21:39:34.299Z,19.40
2018-05-25T21:42:01.913Z,19.40
2018-05-25T21:44:30.278Z,19.30
2018-05-25T21:46:58.650Z,19.30
2018-05-25T21:49:26.279Z,19.20
2018-05-25T21:51:53.868Z,19.20
2018-05-25T21:54:22.293Z,19.20
2018-05-25T21:56:49.865Z,19.20
2018-05-25T21:59:17.512Z,19.20
2018-05-25T22:01:45.114Z,19.10
2018-05-25T22:04:12.705Z,19.10
2018-05-25T22:06:40.277Z,19.10
2018-05-25T22:09:08.667Z,19.00
2018-05-25T22:11:36.260Z,18.90
2018-05-25T22:14:04.103Z,18.90
2018-05-25T22:16:31.767Z,18.90
2018-05-25T22:18:59.382Z,18.80
2018-05-25T22:21:26.518Z,18.70
2018-05-25T22:23:54.134Z,18.70
2018-05-25T22:26:22.534Z,18.60
2018-05-25T22:28:50.152Z,18.50
2018-05-25T22:31:18.537Z,18.40
2018-05-25T22:33:46.974Z,18.30
2018-05-25T22:39:33.643Z,18.10
2018-05-25T22:42:01.486Z,18.00
2018-05-25T22:44:40.940Z,18.00
2018-05-25T22:47:20.400Z,17.90
2018-05-25T22:50:02.320Z,17.80
2018-05-25T22:52:35.009Z,17.80
2018-05-25T22:55:08.850Z,17.70
2018-05-25T22:57:36.591Z,17.70
2018-05-25T23:00:04.174Z,17.60
2018-05-25T23:02:32.536Z,17.60
2018-05-25T23:05:00.238Z,17.50
2018-05-25T23:07:27.906Z,17.50
2018-05-25T23:09:56.379Z,17.40
2018-05-25T23:12:24.373Z,17.40
2018-05-25T23:14:52.712Z,17.30
2018-05-25T23:17:20.361Z,17.20
2018-05-25T23:19:48.007Z,17.20
2018-05-25T23:22:15.599Z,17.20
2018-05-25T23:24:43.240Z,17.20
2018-05-25T23:27:10.853Z,17.10
2018-05-25T23:29:38.419Z,17.10
2018-05-25T23:32:06.864Z,17.00
2018-05-25T23:34:34.519Z,17.00
2018-05-25T23:37:02.148Z,17.00
2018-05-25T23:39:29.753Z,17.00
2018-05-25T23:41:57.345Z,17.00
2018-05-25T23:44:25.706Z,17.00
2018-05-25T23:46:53.269Z,17.00
2018-05-25T23:49:20.877Z,17.00
2018-05-25T23:51:48.491Z,17.00
2018-05-25T23:54:16.864Z,17.00
2018-05-25T23:56:45.245Z,17.00
2018-05-25T23:59:12.835Z,17.00
